sensor_id;sensor_type;location;lat;lon;timestamp;temperature;humidity
20566;DHT22;10441;50.884;12.064;2022-09-03T00:01:22;10.50;99.90
20566;DHT22;10441;50.884;12.064;2022-09-03T00:03:51;10.40;99.90
20566;DHT22;10441;50.884;12.064;2022-09-03T00:06:22;10.40;99.90
20566;DHT22;10441;50.884;12.064;2022-09-03T00:08:50;10.40;99.90
20566;DHT22;10441;50.884;12.064;2022-09-03T00:11:18;10.50;99.90
20566;DHT22;10441;50.884;12.064;2022-09-03T00:13:48;10.50;99.90
20566;DHT22;10441;50.884;12.064;2022-09-03T00:16:16;10.50;99.90
20566;DHT22;10441;50.884;12.064;2022-09-03T00:18:46;10.40;99.90
20566;DHT22;10441;50.884;12.064;2022-09-03T00:21:17;10.50;99.90
20566;DHT22;10441;50.884;12.064;2022-09-03T00:23:46;10.50;99.90
20566;DHT22;10441;50.884;12.064;2022-09-03T00:26:16;10.40;99.90
20566;DHT22;10441;50.884;12.064;2022-09-03T00:28:44;10.30;99.90
20566;DHT22;10441;50.884;12.064;2022-09-03T00:31:15;10.40;99.90
20566;DHT22;10441;50.884;12.064;2022-09-03T00:33:43;10.40;99.90
20566;DHT22;10441;50.884;12.064;2022-09-03T00:36:13;10.30;99.90
20566;DHT22;10441;50.884;12.064;2022-09-03T00:38:43;10.20;99.90
20566;DHT22;10441;50.884;12.064;2022-09-03T00:41:13;10.40;99.90
20566;DHT22;10441;50.884;12.064;2022-09-03T00:43:54;10.30;99.90
20566;DHT22;10441;50.884;12.064;2022-09-03T00:46:23;10.30;99.90
20566;DHT22;10441;50.884;12.064;2022-09-03T00:49:04;10.20;99.90
20566;DHT22;10441;50.884;12.064;2022-09-03T00:51:36;10.30;99.90
20566;DHT22;10441;50.884;12.064;2022-09-03T00:54:09;10.30;99.90
20566;DHT22;10441;50.884;12.064;2022-09-03T00:56:42;10.30;99.90
20566;DHT22;10441;50.884;12.064;2022-09-03T00:59:18;10.30;99.90
20566;DHT22;10441;50.884;12.064;2022-09-03T01:01:48;10.40;99.90
20566;DHT22;10441;50.884;12.064;2022-09-03T01:04:23;10.40;99.90
20566;DHT22;10441;50.884;12.064;2022-09-03T01:06:53;10.30;99.90
20566;DHT22;10441;50.884;12.064;2022-09-03T01:09:33;10.20;99.90
20566;DHT22;10441;50.884;12.064;2022-09-03T01:12:03;10.10;99.90
20566;DHT22;10441;50.884;12.064;2022-09-03T01:14:41;10.00;99.90
20566;DHT22;10441;50.884;12.064;2022-09-03T01:17:12;10.00;99.90
20566;DHT22;10441;50.884;12.064;2022-09-03T01:25:28;10.10;99.90
20566;DHT22;10441;50.884;12.064;2022-09-03T01:28:06;10.10;99.90
20566;DHT22;10441;50.884;12.064;2022-09-03T01:30:39;10.10;99.90
20566;DHT22;10441;50.884;12.064;2022-09-03T01:33:08;10.10;99.90
20566;DHT22;10441;50.884;12.064;2022-09-03T01:35:41;10.10;99.90
20566;DHT22;10441;50.884;12.064;2022-09-03T01:38:11;9.90;99.90
20566;DHT22;10441;50.884;12.064;2022-09-03T01:40:45;10.00;99.90
20566;DHT22;10441;50.884;12.064;2022-09-03T01:43:21;10.00;99.90
20566;DHT22;10441;50.884;12.064;2022-09-03T01:45:50;10.00;99.90
20566;DHT22;10441;50.884;12.064;2022-09-03T01:48:21;9.80;99.90
20566;DHT22;10441;50.884;12.064;2022-09-03T01:50:56;9.80;99.90
20566;DHT22;10441;50.884;12.064;2022-09-03T01:53:30;9.80;99.90
20566;DHT22;10441;50.884;12.064;2022-09-03T01:56:07;9.80;99.90
20566;DHT22;10441;50.884;12.064;2022-09-03T01:58:40;9.80;99.90
20566;DHT22;10441;50.884;12.064;2022-09-03T02:01:09;9.80;99.90
20566;DHT22;10441;50.884;12.064;2022-09-03T02:03:39;9.70;99.90
20566;DHT22;10441;50.884;12.064;2022-09-03T02:06:09;9.70;99.90
20566;DHT22;10441;50.884;12.064;2022-09-03T02:08:36;9.70;99.90
20566;DHT22;10441;50.884;12.064;2022-09-03T02:11:04;9.60;99.90
20566;DHT22;10441;50.884;12.064;2022-09-03T02:13:33;9.60;99.90
20566;DHT22;10441;50.884;12.064;2022-09-03T02:16:05;9.60;99.90
20566;DHT22;10441;50.884;12.064;2022-09-03T02:18:35;9.60;99.90
20566;DHT22;10441;50.884;12.064;2022-09-03T02:21:02;9.60;99.90
20566;DHT22;10441;50.884;12.064;2022-09-03T02:23:30;9.50;99.90
20566;DHT22;10441;50.884;12.064;2022-09-03T02:25:58;9.50;99.90
20566;DHT22;10441;50.884;12.064;2022-09-03T02:28:25;9.50;99.90
20566;DHT22;10441;50.884;12.064;2022-09-03T02:30:53;9.60;99.90
20566;DHT22;10441;50.884;12.064;2022-09-03T02:33:22;9.70;99.90
20566;DHT22;10441;50.884;12.064;2022-09-03T02:35:49;9.60;99.90
20566;DHT22;10441;50.884;12.064;2022-09-03T02:38:17;9.60;99.90
20566;DHT22;10441;50.884;12.064;2022-09-03T02:40:45;9.60;99.90
20566;DHT22;10441;50.884;12.064;2022-09-03T02:43:13;9.70;99.90
20566;DHT22;10441;50.884;12.064;2022-09-03T02:45:42;9.80;99.90
20566;DHT22;10441;50.884;12.064;2022-09-03T02:48:11;9.80;99.90
20566;DHT22;10441;50.884;12.064;2022-09-03T02:50:41;9.80;99.90
20566;DHT22;10441;50.884;12.064;2022-09-03T02:53:08;9.90;99.90
20566;DHT22;10441;50.884;12.064;2022-09-03T02:55:35;9.90;99.90
20566;DHT22;10441;50.884;12.064;2022-09-03T02:58:02;9.90;99.90
20566;DHT22;10441;50.884;12.064;2022-09-03T03:00:30;9.80;99.90
20566;DHT22;10441;50.884;12.064;2022-09-03T03:02:57;9.80;99.90
20566;DHT22;10441;50.884;12.064;2022-09-03T03:05:25;9.60;99.90
20566;DHT22;10441;50.884;12.064;2022-09-03T03:07:55;9.60;99.90
20566;DHT22;10441;50.884;12.064;2022-09-03T03:10:22;9.50;99.90
20566;DHT22;10441;50.884;12.064;2022-09-03T03:12:49;9.40;99.90
20566;DHT22;10441;50.884;12.064;2022-09-03T03:15:16;9.30;99.90
20566;DHT22;10441;50.884;12.064;2022-09-03T03:17:43;9.40;99.90
20566;DHT22;10441;50.884;12.064;2022-09-03T03:20:10;9.20;99.90
20566;DHT22;10441;50.884;12.064;2022-09-03T03:22:37;9.30;99.90
20566;DHT22;10441;50.884;12.064;2022-09-03T03:25:06;9.20;99.90
20566;DHT22;10441;50.884;12.064;2022-09-03T03:27:34;9.20;99.90
20566;DHT22;10441;50.884;12.064;2022-09-03T03:30:07;9.20;99.90
20566;DHT22;10441;50.884;12.064;2022-09-03T03:32:34;9.10;99.90
20566;DHT22;10441;50.884;12.064;2022-09-03T03:35:02;9.10;99.90
20566;DHT22;10441;50.884;12.064;2022-09-03T03:37:29;9.00;99.90
20566;DHT22;10441;50.884;12.064;2022-09-03T03:39:56;8.90;99.90
20566;DHT22;10441;50.884;12.064;2022-09-03T03:42:24;8.90;99.90
20566;DHT22;10441;50.884;12.064;2022-09-03T03:44:53;8.80;99.90
20566;DHT22;10441;50.884;12.064;2022-09-03T03:47:20;8.80;99.90
20566;DHT22;10441;50.884;12.064;2022-09-03T03:49:47;8.80;99.90
20566;DHT22;10441;50.884;12.064;2022-09-03T03:52:14;8.80;99.90
20566;DHT22;10441;50.884;12.064;2022-09-03T03:54:41;8.80;99.90
20566;DHT22;10441;50.884;12.064;2022-09-03T03:57:07;8.70;99.90
20566;DHT22;10441;50.884;12.064;2022-09-03T03:59:36;9.20;99.90
20566;DHT22;10441;50.884;12.064;2022-09-03T04:02:03;8.70;99.90
20566;DHT22;10441;50.884;12.064;2022-09-03T04:04:29;8.50;99.90
20566;DHT22;10441;50.884;12.064;2022-09-03T04:06:56;8.50;99.90
20566;DHT22;10441;50.884;12.064;2022-09-03T04:09:23;8.40;99.90
20566;DHT22;10441;50.884;12.064;2022-09-03T04:11:50;8.20;99.90
20566;DHT22;10441;50.884;12.064;2022-09-03T04:14:17;8.30;99.90
20566;DHT22;10441;50.884;12.064;2022-09-03T04:16:45;8.30;99.90
20566;DHT22;10441;50.884;12.064;2022-09-03T04:19:12;8.30;99.90
20566;DHT22;10441;50.884;12.064;2022-09-03T04:21:39;8.30;99.90
20566;DHT22;10441;50.884;12.064;2022-09-03T04:24:06;8.30;99.90
20566;DHT22;10441;50.884;12.064;2022-09-03T04:26:33;8.40;99.90
20566;DHT22;10441;50.884;12.064;2022-09-03T04:29:01;8.40;99.90
20566;DHT22;10441;50.884;12.064;2022-09-03T04:31:28;8.30;99.90
20566;DHT22;10441;50.884;12.064;2022-09-03T04:33:56;8.30;99.90
20566;DHT22;10441;50.884;12.064;2022-09-03T04:36:24;8.30;99.90
20566;DHT22;10441;50.884;12.064;2022-09-03T04:38:53;8.40;99.90
20566;DHT22;10441;50.884;12.064;2022-09-03T04:41:20;8.20;99.90
20566;DHT22;10441;50.884;12.064;2022-09-03T04:43:49;8.20;99.90
20566;DHT22;10441;50.884;12.064;2022-09-03T04:46:17;8.30;99.90
20566;DHT22;10441;50.884;12.064;2022-09-03T04:48:46;8.40;99.90
20566;DHT22;10441;50.884;12.064;2022-09-03T04:51:17;8.40;99.90
20566;DHT22;10441;50.884;12.064;2022-09-03T04:53:44;8.50;99.90
20566;DHT22;10441;50.884;12.064;2022-09-03T04:56:11;8.70;99.90
20566;DHT22;10441;50.884;12.064;2022-09-03T04:58:39;8.70;99.90
20566;DHT22;10441;50.884;12.064;2022-09-03T05:01:09;8.80;99.90
20566;DHT22;10441;50.884;12.064;2022-09-03T05:03:35;8.90;99.90
20566;DHT22;10441;50.884;12.064;2022-09-03T05:06:03;8.90;99.90
20566;DHT22;10441;50.884;12.064;2022-09-03T05:08:31;9.80;99.90
20566;DHT22;10441;50.884;12.064;2022-09-03T05:11:01;11.70;99.90
20566;DHT22;10441;50.884;12.064;2022-09-03T05:13:28;12.60;99.90
20566;DHT22;10441;50.884;12.064;2022-09-03T05:15:57;12.20;99.90
20566;DHT22;10441;50.884;12.064;2022-09-03T05:18:24;12.00;99.90
20566;DHT22;10441;50.884;12.064;2022-09-03T05:20:56;12.00;99.90
20566;DHT22;10441;50.884;12.064;2022-09-03T05:23:23;13.20;99.90
20566;DHT22;10441;50.884;12.064;2022-09-03T05:25:55;13.90;99.90
20566;DHT22;10441;50.884;12.064;2022-09-03T05:28:23;14.20;99.90
20566;DHT22;10441;50.884;12.064;2022-09-03T05:30:57;14.60;99.90
20566;DHT22;10441;50.884;12.064;2022-09-03T05:33:24;15.00;99.90
20566;DHT22;10441;50.884;12.064;2022-09-03T05:35:52;15.50;99.90
20566;DHT22;10441;50.884;12.064;2022-09-03T05:38:19;16.00;99.90
20566;DHT22;10441;50.884;12.064;2022-09-03T05:40:46;16.60;99.90
20566;DHT22;10441;50.884;12.064;2022-09-03T05:43:14;16.80;99.90
20566;DHT22;10441;50.884;12.064;2022-09-03T05:45:42;16.50;99.90
20566;DHT22;10441;50.884;12.064;2022-09-03T05:48:08;17.50;99.90
20566;DHT22;10441;50.884;12.064;2022-09-03T05:50:36;17.70;99.90
20566;DHT22;10441;50.884;12.064;2022-09-03T05:53:03;17.80;99.90
20566;DHT22;10441;50.884;12.064;2022-09-03T05:55:29;17.80;99.90
20566;DHT22;10441;50.884;12.064;2022-09-03T05:57:56;17.80;99.90
20566;DHT22;10441;50.884;12.064;2022-09-03T06:00:24;17.90;99.90
20566;DHT22;10441;50.884;12.064;2022-09-03T06:02:52;19.20;99.90
20566;DHT22;10441;50.884;12.064;2022-09-03T06:05:19;20.10;99.90
20566;DHT22;10441;50.884;12.064;2022-09-03T06:07:46;19.70;99.90
20566;DHT22;10441;50.884;12.064;2022-09-03T06:10:14;19.60;99.90
20566;DHT22;10441;50.884;12.064;2022-09-03T06:12:42;19.70;99.90
20566;DHT22;10441;50.884;12.064;2022-09-03T06:15:14;19.70;99.90
20566;DHT22;10441;50.884;12.064;2022-09-03T06:17:42;19.70;99.90
20566;DHT22;10441;50.884;12.064;2022-09-03T06:20:10;20.30;99.90
20566;DHT22;10441;50.884;12.064;2022-09-03T06:22:37;21.00;99.90
20566;DHT22;10441;50.884;12.064;2022-09-03T06:25:04;21.50;99.90
20566;DHT22;10441;50.884;12.064;2022-09-03T06:27:32;21.30;99.90
20566;DHT22;10441;50.884;12.064;2022-09-03T06:29:59;21.40;99.90
20566;DHT22;10441;50.884;12.064;2022-09-03T06:32:25;22.20;99.90
20566;DHT22;10441;50.884;12.064;2022-09-03T06:34:55;22.50;99.90
20566;DHT22;10441;50.884;12.064;2022-09-03T06:37:22;21.80;99.90
20566;DHT22;10441;50.884;12.064;2022-09-03T06:39:48;21.80;99.90
20566;DHT22;10441;50.884;12.064;2022-09-03T06:42:16;22.00;99.90
20566;DHT22;10441;50.884;12.064;2022-09-03T06:44:43;21.10;99.90
20566;DHT22;10441;50.884;12.064;2022-09-03T06:47:10;19.80;99.90
20566;DHT22;10441;50.884;12.064;2022-09-03T06:49:37;19.30;99.90
20566;DHT22;10441;50.884;12.064;2022-09-03T06:52:06;18.20;99.90
20566;DHT22;10441;50.884;12.064;2022-09-03T06:54:32;16.60;99.90
20566;DHT22;10441;50.884;12.064;2022-09-03T06:56:59;16.50;99.90
20566;DHT22;10441;50.884;12.064;2022-09-03T06:59:28;16.70;99.90
20566;DHT22;10441;50.884;12.064;2022-09-03T07:01:54;18.80;99.90
20566;DHT22;10441;50.884;12.064;2022-09-03T07:04:23;18.90;99.90
20566;DHT22;10441;50.884;12.064;2022-09-03T07:06:51;19.10;99.90
20566;DHT22;10441;50.884;12.064;2022-09-03T07:09:20;20.60;99.90
20566;DHT22;10441;50.884;12.064;2022-09-03T07:11:47;20.00;99.90
20566;DHT22;10441;50.884;12.064;2022-09-03T07:14:14;19.20;99.90
20566;DHT22;10441;50.884;12.064;2022-09-03T07:16:41;19.40;99.90
20566;DHT22;10441;50.884;12.064;2022-09-03T07:19:08;19.20;99.90
20566;DHT22;10441;50.884;12.064;2022-09-03T07:21:35;19.30;99.90
20566;DHT22;10441;50.884;12.064;2022-09-03T07:24:02;19.00;99.90
20566;DHT22;10441;50.884;12.064;2022-09-03T07:26:32;18.60;99.90
20566;DHT22;10441;50.884;12.064;2022-09-03T07:28:59;18.70;99.90
20566;DHT22;10441;50.884;12.064;2022-09-03T07:31:26;20.00;99.90
20566;DHT22;10441;50.884;12.064;2022-09-03T07:33:54;20.60;99.90
20566;DHT22;10441;50.884;12.064;2022-09-03T07:36:21;20.50;99.90
20566;DHT22;10441;50.884;12.064;2022-09-03T07:38:49;20.30;99.90
20566;DHT22;10441;50.884;12.064;2022-09-03T07:41:16;19.90;99.90
20566;DHT22;10441;50.884;12.064;2022-09-03T07:43:45;20.20;99.90
20566;DHT22;10441;50.884;12.064;2022-09-03T07:46:12;21.00;99.90
20566;DHT22;10441;50.884;12.064;2022-09-03T07:48:40;20.40;99.90
20566;DHT22;10441;50.884;12.064;2022-09-03T07:51:07;19.80;99.90
20566;DHT22;10441;50.884;12.064;2022-09-03T07:53:34;20.50;99.90
20566;DHT22;10441;50.884;12.064;2022-09-03T07:56:02;20.90;99.90
20566;DHT22;10441;50.884;12.064;2022-09-03T07:58:29;21.00;99.90
20566;DHT22;10441;50.884;12.064;2022-09-03T08:00:58;21.50;99.90
20566;DHT22;10441;50.884;12.064;2022-09-03T08:03:25;22.60;99.90
20566;DHT22;10441;50.884;12.064;2022-09-03T08:05:52;21.80;99.90
20566;DHT22;10441;50.884;12.064;2022-09-03T08:08:19;21.90;99.90
20566;DHT22;10441;50.884;12.064;2022-09-03T08:10:46;23.40;99.90
20566;DHT22;10441;50.884;12.064;2022-09-03T08:13:15;22.40;99.90
20566;DHT22;10441;50.884;12.064;2022-09-03T08:15:42;22.10;99.90
20566;DHT22;10441;50.884;12.064;2022-09-03T08:18:10;21.40;99.90
20566;DHT22;10441;50.884;12.064;2022-09-03T08:20:38;22.70;99.90
20566;DHT22;10441;50.884;12.064;2022-09-03T08:23:05;23.90;99.90
20566;DHT22;10441;50.884;12.064;2022-09-03T08:25:32;23.50;99.90
20566;DHT22;10441;50.884;12.064;2022-09-03T08:27:59;23.70;99.90
20566;DHT22;10441;50.884;12.064;2022-09-03T08:30:26;24.00;99.90
20566;DHT22;10441;50.884;12.064;2022-09-03T08:32:53;24.70;99.90
20566;DHT22;10441;50.884;12.064;2022-09-03T08:35:22;24.50;98.90
20566;DHT22;10441;50.884;12.064;2022-09-03T08:37:49;23.50;99.10
20566;DHT22;10441;50.884;12.064;2022-09-03T08:40:18;24.30;98.90
20566;DHT22;10441;50.884;12.064;2022-09-03T08:42:54;25.80;99.10
20566;DHT22;10441;50.884;12.064;2022-09-03T08:45:24;23.70;95.70
20566;DHT22;10441;50.884;12.064;2022-09-03T08:47:54;23.80;95.50
20566;DHT22;10441;50.884;12.064;2022-09-03T08:50:25;23.30;96.00
20566;DHT22;10441;50.884;12.064;2022-09-03T08:52:55;23.80;95.50
20566;DHT22;10441;50.884;12.064;2022-09-03T08:55:26;24.10;95.20
20566;DHT22;10441;50.884;12.064;2022-09-03T08:57:55;24.80;93.90
20566;DHT22;10441;50.884;12.064;2022-09-03T09:00:22;25.90;94.50
20566;DHT22;10441;50.884;12.064;2022-09-03T09:02:52;24.80;92.10
20566;DHT22;10441;50.884;12.064;2022-09-03T09:05:22;25.30;92.70
20566;DHT22;10441;50.884;12.064;2022-09-03T09:07:52;25.40;91.30
20566;DHT22;10441;50.884;12.064;2022-09-03T09:10:24;25.20;91.70
20566;DHT22;10441;50.884;12.064;2022-09-03T09:12:56;26.20;85.30
20566;DHT22;10441;50.884;12.064;2022-09-03T09:15:27;26.80;87.20
20566;DHT22;10441;50.884;12.064;2022-09-03T09:18:00;28.20;83.50
20566;DHT22;10441;50.884;12.064;2022-09-03T09:20:31;27.60;81.30
20566;DHT22;10441;50.884;12.064;2022-09-03T09:23:03;27.60;79.70
20566;DHT22;10441;50.884;12.064;2022-09-03T09:25:32;25.00;80.20
20566;DHT22;10441;50.884;12.064;2022-09-03T09:28:09;26.50;81.40
20566;DHT22;10441;50.884;12.064;2022-09-03T09:30:37;26.60;78.50
20566;DHT22;10441;50.884;12.064;2022-09-03T09:33:04;25.90;80.60
20566;DHT22;10441;50.884;12.064;2022-09-03T09:35:31;28.00;76.60
20566;DHT22;10441;50.884;12.064;2022-09-03T09:37:58;26.10;76.40
20566;DHT22;10441;50.884;12.064;2022-09-03T09:40:28;24.90;76.60
20566;DHT22;10441;50.884;12.064;2022-09-03T09:43:04;24.60;78.10
20566;DHT22;10441;50.884;12.064;2022-09-03T09:45:31;24.20;76.90
20566;DHT22;10441;50.884;12.064;2022-09-03T09:47:58;25.00;76.00
20566;DHT22;10441;50.884;12.064;2022-09-03T09:50:25;24.80;73.10
20566;DHT22;10441;50.884;12.064;2022-09-03T09:52:59;24.00;74.70
20566;DHT22;10441;50.884;12.064;2022-09-03T09:55:31;25.00;75.40
20566;DHT22;10441;50.884;12.064;2022-09-03T09:58:04;25.30;75.20
20566;DHT22;10441;50.884;12.064;2022-09-03T10:00:33;26.30;73.40
20566;DHT22;10441;50.884;12.064;2022-09-03T10:03:05;25.20;73.00
20566;DHT22;10441;50.884;12.064;2022-09-03T10:05:33;26.00;75.20
20566;DHT22;10441;50.884;12.064;2022-09-03T10:08:03;24.20;73.90
20566;DHT22;10441;50.884;12.064;2022-09-03T10:10:32;25.00;73.70
20566;DHT22;10441;50.884;12.064;2022-09-03T10:13:03;24.70;73.90
20566;DHT22;10441;50.884;12.064;2022-09-03T10:15:35;24.90;73.50
20566;DHT22;10441;50.884;12.064;2022-09-03T10:18:07;25.90;73.00
20566;DHT22;10441;50.884;12.064;2022-09-03T10:20:38;23.40;77.40
20566;DHT22;10441;50.884;12.064;2022-09-03T10:23:13;24.50;77.40
20566;DHT22;10441;50.884;12.064;2022-09-03T10:25:45;24.40;76.90
20566;DHT22;10441;50.884;12.064;2022-09-03T10:28:18;23.90;76.50
20566;DHT22;10441;50.884;12.064;2022-09-03T10:30:51;23.30;77.60
20566;DHT22;10441;50.884;12.064;2022-09-03T10:33:23;23.40;77.30
20566;DHT22;10441;50.884;12.064;2022-09-03T10:35:52;23.10;77.20
20566;DHT22;10441;50.884;12.064;2022-09-03T10:38:22;22.80;78.30
20566;DHT22;10441;50.884;12.064;2022-09-03T10:40:54;25.20;77.30
20566;DHT22;10441;50.884;12.064;2022-09-03T10:43:28;25.50;74.60
20566;DHT22;10441;50.884;12.064;2022-09-03T10:46:00;26.40;74.80
20566;DHT22;10441;50.884;12.064;2022-09-03T10:51:15;24.20;74.30
20566;DHT22;10441;50.884;12.064;2022-09-03T10:53:54;24.20;75.30
20566;DHT22;10441;50.884;12.064;2022-09-03T10:56:29;23.40;75.30
20566;DHT22;10441;50.884;12.064;2022-09-03T10:59:02;24.20;76.30
20566;DHT22;10441;50.884;12.064;2022-09-03T11:01:34;24.90;74.00
20566;DHT22;10441;50.884;12.064;2022-09-03T11:04:17;25.50;73.90
20566;DHT22;10441;50.884;12.064;2022-09-03T11:06:50;24.20;74.40
20566;DHT22;10441;50.884;12.064;2022-09-03T11:09:19;23.50;75.50
20566;DHT22;10441;50.884;12.064;2022-09-03T11:11:50;23.30;76.00
20566;DHT22;10441;50.884;12.064;2022-09-03T11:14:21;24.70;74.60
20566;DHT22;10441;50.884;12.064;2022-09-03T11:16:51;25.50;75.10
20566;DHT22;10441;50.884;12.064;2022-09-03T11:19:21;24.50;74.10
20566;DHT22;10441;50.884;12.064;2022-09-03T11:21:53;22.90;76.50
20566;DHT22;10441;50.884;12.064;2022-09-03T11:24:23;22.90;76.70
20566;DHT22;10441;50.884;12.064;2022-09-03T11:26:54;24.40;75.50
20566;DHT22;10441;50.884;12.064;2022-09-03T11:29:24;24.50;75.10
20566;DHT22;10441;50.884;12.064;2022-09-03T11:31:54;24.00;73.70
20566;DHT22;10441;50.884;12.064;2022-09-03T11:34:27;24.10;76.20
20566;DHT22;10441;50.884;12.064;2022-09-03T11:37:06;24.20;75.60
20566;DHT22;10441;50.884;12.064;2022-09-03T11:39:41;24.00;75.60
20566;DHT22;10441;50.884;12.064;2022-09-03T11:42:10;24.30;74.80
20566;DHT22;10441;50.884;12.064;2022-09-03T11:44:38;25.80;73.90
20566;DHT22;10441;50.884;12.064;2022-09-03T11:47:12;25.20;72.80
20566;DHT22;10441;50.884;12.064;2022-09-03T11:49:43;23.30;75.70
20566;DHT22;10441;50.884;12.064;2022-09-03T11:52:10;24.50;74.80
20566;DHT22;10441;50.884;12.064;2022-09-03T11:54:42;24.20;75.40
20566;DHT22;10441;50.884;12.064;2022-09-03T11:57:12;24.90;74.40
20566;DHT22;10441;50.884;12.064;2022-09-03T11:59:39;24.70;72.60
20566;DHT22;10441;50.884;12.064;2022-09-03T12:02:11;24.90;73.90
20566;DHT22;10441;50.884;12.064;2022-09-03T12:04:41;25.50;75.20
20566;DHT22;10441;50.884;12.064;2022-09-03T12:07:20;26.20;72.80
20566;DHT22;10441;50.884;12.064;2022-09-03T12:10:01;24.50;73.30
20566;DHT22;10441;50.884;12.064;2022-09-03T12:15:16;23.90;74.30
20566;DHT22;10441;50.884;12.064;2022-09-03T12:17:50;24.60;75.80
20566;DHT22;10441;50.884;12.064;2022-09-03T12:20:37;26.30;73.70
20566;DHT22;10441;50.884;12.064;2022-09-03T12:23:05;25.50;72.70
20566;DHT22;10441;50.884;12.064;2022-09-03T12:25:32;24.60;74.00
20566;DHT22;10441;50.884;12.064;2022-09-03T12:27:59;25.80;72.70
20566;DHT22;10441;50.884;12.064;2022-09-03T12:33:26;25.00;73.30
20566;DHT22;10441;50.884;12.064;2022-09-03T12:35:57;25.00;73.50
20566;DHT22;10441;50.884;12.064;2022-09-03T12:38:24;24.00;74.40
20566;DHT22;10441;50.884;12.064;2022-09-03T12:40:51;24.90;74.30
20566;DHT22;10441;50.884;12.064;2022-09-03T12:43:19;25.30;73.60
20566;DHT22;10441;50.884;12.064;2022-09-03T12:45:47;25.20;73.40
20566;DHT22;10441;50.884;12.064;2022-09-03T12:48:16;25.60;72.80
20566;DHT22;10441;50.884;12.064;2022-09-03T12:50:45;26.40;71.40
20566;DHT22;10441;50.884;12.064;2022-09-03T12:53:16;25.80;72.00
20566;DHT22;10441;50.884;12.064;2022-09-03T12:55:49;25.80;71.60
20566;DHT22;10441;50.884;12.064;2022-09-03T12:58:18;25.50;72.70
20566;DHT22;10441;50.884;12.064;2022-09-03T13:00:48;24.00;73.40
20566;DHT22;10441;50.884;12.064;2022-09-03T13:03:17;24.20;75.80
20566;DHT22;10441;50.884;12.064;2022-09-03T13:05:48;24.40;73.90
20566;DHT22;10441;50.884;12.064;2022-09-03T13:08:17;24.80;74.30
20566;DHT22;10441;50.884;12.064;2022-09-03T13:10:47;25.70;71.80
20566;DHT22;10441;50.884;12.064;2022-09-03T13:13:18;26.00;71.70
20566;DHT22;10441;50.884;12.064;2022-09-03T13:18:29;25.60;72.10
20566;DHT22;10441;50.884;12.064;2022-09-03T13:21:08;25.70;70.80
20566;DHT22;10441;50.884;12.064;2022-09-03T13:23:39;24.30;72.40
20566;DHT22;10441;50.884;12.064;2022-09-03T13:26:13;24.40;73.80
20566;DHT22;10441;50.884;12.064;2022-09-03T13:28:46;25.40;71.90
20566;DHT22;10441;50.884;12.064;2022-09-03T13:31:25;25.30;71.70
20566;DHT22;10441;50.884;12.064;2022-09-03T13:33:56;25.70;71.60
20566;DHT22;10441;50.884;12.064;2022-09-03T13:36:27;25.50;70.90
20566;DHT22;10441;50.884;12.064;2022-09-03T13:38:57;25.20;72.00
20566;DHT22;10441;50.884;12.064;2022-09-03T13:41:32;25.30;70.70
20566;DHT22;10441;50.884;12.064;2022-09-03T13:44:02;24.30;71.60
20566;DHT22;10441;50.884;12.064;2022-09-03T13:46:33;24.10;73.10
20566;DHT22;10441;50.884;12.064;2022-09-03T13:49:08;24.30;73.30
20566;DHT22;10441;50.884;12.064;2022-09-03T13:51:57;24.50;72.90
20566;DHT22;10441;50.884;12.064;2022-09-03T13:54:26;25.40;71.60
20566;DHT22;10441;50.884;12.064;2022-09-03T13:56:56;24.60;71.70
20566;DHT22;10441;50.884;12.064;2022-09-03T13:59:27;23.40;73.30
20566;DHT22;10441;50.884;12.064;2022-09-03T14:01:59;23.50;74.20
20566;DHT22;10441;50.884;12.064;2022-09-03T14:04:31;22.80;75.10
20566;DHT22;10441;50.884;12.064;2022-09-03T14:07:10;23.10;74.60
20566;DHT22;10441;50.884;12.064;2022-09-03T14:09:45;23.20;75.30
20566;DHT22;10441;50.884;12.064;2022-09-03T14:12:16;23.50;75.40
20566;DHT22;10441;50.884;12.064;2022-09-03T14:14:48;23.40;74.00
20566;DHT22;10441;50.884;12.064;2022-09-03T14:17:27;23.90;74.00
20566;DHT22;10441;50.884;12.064;2022-09-03T14:19:59;25.30;72.20
20566;DHT22;10441;50.884;12.064;2022-09-03T14:22:32;25.50;71.80
20566;DHT22;10441;50.884;12.064;2022-09-03T14:25:08;25.40;73.70
20566;DHT22;10441;50.884;12.064;2022-09-03T14:27:37;25.10;71.60
20566;DHT22;10441;50.884;12.064;2022-09-03T14:30:05;25.50;70.10
20566;DHT22;10441;50.884;12.064;2022-09-03T14:32:37;25.90;69.40
20566;DHT22;10441;50.884;12.064;2022-09-03T14:38:01;24.90;69.30
20566;DHT22;10441;50.884;12.064;2022-09-03T14:40:38;24.80;70.30
20566;DHT22;10441;50.884;12.064;2022-09-03T14:43:13;26.20;69.70
20566;DHT22;10441;50.884;12.064;2022-09-03T14:46:03;29.50;64.90
20566;DHT22;10441;50.884;12.064;2022-09-03T14:48:36;30.20;63.70
20566;DHT22;10441;50.884;12.064;2022-09-03T14:51:13;30.20;64.40
20566;DHT22;10441;50.884;12.064;2022-09-03T14:53:49;27.90;64.00
20566;DHT22;10441;50.884;12.064;2022-09-03T14:56:27;26.70;64.50
20566;DHT22;10441;50.884;12.064;2022-09-03T14:59:13;26.40;64.50
20566;DHT22;10441;50.884;12.064;2022-09-03T15:01:51;25.80;65.70
20566;DHT22;10441;50.884;12.064;2022-09-03T15:04:50;24.40;70.00
20566;DHT22;10441;50.884;12.064;2022-09-03T15:07:29;23.40;71.30
20566;DHT22;10441;50.884;12.064;2022-09-03T15:10:01;23.20;71.40
20566;DHT22;10441;50.884;12.064;2022-09-03T15:12:33;23.30;72.30
20566;DHT22;10441;50.884;12.064;2022-09-03T15:15:07;23.60;72.70
20566;DHT22;10441;50.884;12.064;2022-09-03T15:17:46;24.40;73.10
20566;DHT22;10441;50.884;12.064;2022-09-03T15:20:15;24.30;72.60
20566;DHT22;10441;50.884;12.064;2022-09-03T15:23:00;23.50;72.80
20566;DHT22;10441;50.884;12.064;2022-09-03T15:25:40;23.80;74.10
20566;DHT22;10441;50.884;12.064;2022-09-03T15:28:14;24.10;73.60
20566;DHT22;10441;50.884;12.064;2022-09-03T15:30:47;23.90;72.80
20566;DHT22;10441;50.884;12.064;2022-09-03T15:33:21;23.90;73.70
20566;DHT22;10441;50.884;12.064;2022-09-03T15:38:39;23.80;79.50
20566;DHT22;10441;50.884;12.064;2022-09-03T15:41:11;23.50;79.40
20566;DHT22;10441;50.884;12.064;2022-09-03T15:43:46;23.40;83.20
20566;DHT22;10441;50.884;12.064;2022-09-03T15:46:29;23.30;85.90
20566;DHT22;10441;50.884;12.064;2022-09-03T15:48:59;23.00;89.00
20566;DHT22;10441;50.884;12.064;2022-09-03T15:51:31;23.00;86.40
20566;DHT22;10441;50.884;12.064;2022-09-03T15:54:01;22.60;81.90
20566;DHT22;10441;50.884;12.064;2022-09-03T15:56:36;22.70;84.20
20566;DHT22;10441;50.884;12.064;2022-09-03T15:59:11;22.50;83.80
20566;DHT22;10441;50.884;12.064;2022-09-03T16:01:43;22.40;82.40